Alliance, OH

11:32 PM EDT on August 29, 2015 (GMT -0400)
Alliance WX | | Change Station
CLOSE
Current Station
Personal Weather Station
Location: Alliance, OH
Elevation: 1204 ft
Nearby Weather Stations

Elev 1204 ft 40.92 °N, 81.13 °W | Updated 4 minutes ago

Mostly Cloudy
Mostly Cloudy
69.5 °F
Feels Like 69.5 °F
N
0.0
Wind Variable Wind from SSE
Gusts 0.0 mph

Today
High -- | Low -- °F
--% Chance of Precip.
Yesterday
High -- | Low -- °F
Precip. -- in
6:48 AM 8:02 PM
Full, 100% visible
Pressure 30.08 in
Visibility 10.0 miles
Clouds Scattered Clouds 6500 ft
Mostly Cloudy 20000 ft
Dew Point 66 °F
Humidity 87%
Rainfall 0.09 in
Snow Depth Not available.
UV 0 out of 12
Pollen 10.00 out of 12
Air Quality Not available.
Flu Activity Not available.
METAR KCAK 300251Z 00000KT 10SM SCT065 BKN200 23/17 A3010 RMK AO2 SLP185 T02330172 51009
Pressure 30.08 in
Visibility 10.0 miles
Clouds Scattered Clouds 6500 ft
Mostly Cloudy 20000 ft
Dew Point 66 °F
Humidity 87%
Rainfall 0.09 in
Snow Depth Not available.
UV 0 out of 12
Pollen 10.00 out of 12
Air Quality Not available.
Flu Activity Not available.
METAR KCAK 300251Z 00000KT 10SM SCT065 BKN200 23/17 A3010 RMK AO2 SLP185 T02330172 51009

10-Day Weather Forecast

×

Almanac

Astronomy

Aug. 29, 2015 Rise Set
Actual Time
Civil Twilight
Nautical Twilight
Astronomical Twilight
Moon
Length of Visible Light
Length of Day
Tomorrow will be .
, % of the Moon is Illuminated

Today's Extremes

State Highs State Lows

Community

WunderPhotos

Upload Photos

1,850,870 photos uploaded!

WunderBlogs® & News

Nearby

Air Quality

  Air Quality AQ Index Pollutant
Not available.

Snow Depth

Station Depth Elevation

Earthquake Activity

City Distance Mag. Time & Date
Minimum magnitude displayed is 2.5.

Coastal Water Temperatures

Place Temperature

Stations

Nearby Weather Stations

Station Location Temp. Windchill Dew Point Humidity Wind Precip. Elev Updated Type